Time;durP1;ratioP1;P1;durP2;ratioP2;P2;SDS_P1;SDS_P2;PMS_P1;PMS_P2;Temp;Humidity;BMP_temperature;BMP_pressure;BME280_temperature;BME280_humidity;BME280_pressure;Samples;Min_cycle;Max_cycle;Signal;HPM_P1;HPM_P2
2022/05/18 00:00:34;;;;;;;;;;;22.30;50.10;;;;;;5075906;28;20244;-88
2022/05/18 00:03:19;;;;;;;;;;;22.30;50.20;;;;;;5075428;28;19960;-88
2022/05/18 00:05:45;;;;;;;;;;;22.30;50.10;;;;;;5056726;28;19921;-88
2022/05/18 00:08:11;;;;;;;;;;;22.30;50.30;;;;;;5074607;28;19916;-88
2022/05/18 00:10:38;;;;;;;;;;;22.30;50.30;;;;;;5055627;28;19965;-87
2022/05/18 00:13:04;;;;;;;;;;;22.20;50.50;;;;;;5056535;28;19924;-88
2022/05/18 00:15:30;;;;;;;;;;;22.30;50.80;;;;;;5056584;28;19912;-88
2022/05/18 00:17:56;;;;;;;;;;;22.30;50.70;;;;;;5074646;28;19923;-88
2022/05/18 00:20:22;;;;;;;;;;;22.30;51.00;;;;;;5055828;28;19912;-88
2022/05/18 00:22:49;;;;;;;;;;;22.30;50.90;;;;;;5072646;28;19931;-88
2022/05/18 00:25:16;;;;;;;;;;;22.20;51.00;;;;;;5072447;28;19916;-88
2022/05/18 00:27:41;;;;;;;;;;;22.20;51.10;;;;;;5072540;28;19916;-89
2022/05/18 00:30:08;;;;;;;;;;;22.20;51.30;;;;;;5073206;28;19912;-89
2022/05/18 00:32:34;;;;;;;;;;;22.20;51.40;;;;;;5072895;28;19939;-88
2022/05/18 00:34:59;;;;;;;;;;;22.20;51.40;;;;;;5054460;28;19912;-89
2022/05/18 00:37:25;;;;;;;;;;;22.20;51.30;;;;;;5072722;28;19974;-88
2022/05/18 00:39:50;;;;;;;;;;;22.20;51.30;;;;;;5055789;28;20337;-88
2022/05/18 00:42:17;;;;;;;;;;;22.20;51.10;;;;;;5076538;28;19946;-88
2022/05/18 00:44:42;;;;;;;;;;;22.20;51.00;;;;;;5075989;28;19917;-88
2022/05/18 00:47:07;;;;;;;;;;;22.10;51.00;;;;;;5057160;28;19923;-88
2022/05/18 00:49:33;;;;;;;;;;;22.10;51.10;;;;;;5058427;28;19916;-88
2022/05/18 00:51:59;;;;;;;;;;;22.10;51.20;;;;;;5058722;28;19978;-88
2022/05/18 00:54:27;;;;;;;;;;;22.10;51.40;;;;;;5075508;28;19916;-88
2022/05/18 00:56:55;;;;;;;;;;;22.10;51.40;;;;;;5038615;28;19917;-88
2022/05/18 00:59:24;;;;;;;;;;;22.10;51.60;;;;;;5074604;28;20332;-88
2022/05/18 01:01:50;;;;;;;;;;;22.10;51.50;;;;;;5058506;28;19948;-88
2022/05/18 01:04:16;;;;;;;;;;;22.10;51.40;;;;;;5075922;28;19944;-89
2022/05/18 01:06:44;;;;;;;;;;;22.00;51.50;;;;;;5044630;28;20004;-88
2022/05/18 01:09:21;;;;;;;;;;;22.00;51.60;;;;;;5051527;28;19917;-88
2022/05/18 01:11:47;;;;;;;;;;;22.00;51.50;;;;;;5038590;28;19924;-88
2022/05/18 01:14:17;;;;;;;;;;;22.00;51.50;;;;;;5072659;28;19921;-88
2022/05/18 01:16:43;;;;;;;;;;;22.00;51.50;;;;;;5058143;28;19920;-88
2022/05/18 01:19:15;;;;;;;;;;;21.90;51.60;;;;;;5058298;28;19967;-88
2022/05/18 01:21:47;;;;;;;;;;;21.90;51.50;;;;;;5069940;28;20364;-88
2022/05/18 01:24:24;;;;;;;;;;;21.80;51.40;;;;;;5057930;28;19960;-88
2022/05/18 01:26:50;;;;;;;;;;;21.80;51.40;;;;;;5075871;28;19927;-88
2022/05/18 01:29:18;;;;;;;;;;;21.80;51.40;;;;;;5075499;28;20090;-88
2022/05/18 01:31:46;;;;;;;;;;;21.70;51.40;;;;;;5075892;28;19917;-87
2022/05/18 01:34:13;;;;;;;;;;;21.70;51.60;;;;;;5057155;28;19951;-88
2022/05/18 01:36:38;;;;;;;;;;;21.60;51.50;;;;;;5075180;28;19919;-88
2022/05/18 01:39:06;;;;;;;;;;;21.50;51.50;;;;;;5053154;28;20308;-88
2022/05/18 01:41:34;;;;;;;;;;;21.50;51.60;;;;;;5054717;28;19917;-88
2022/05/18 01:44:04;;;;;;;;;;;21.40;51.80;;;;;;5056743;28;20293;-88
2022/05/18 01:46:31;;;;;;;;;;;21.30;51.80;;;;;;5075127;28;19923;-88
2022/05/18 01:48:56;;;;;;;;;;;21.30;51.80;;;;;;5055642;28;20291;-88
2022/05/18 01:51:27;;;;;;;;;;;21.20;51.80;;;;;;5056538;28;19912;-88
2022/05/18 01:53:53;;;;;;;;;;;21.10;51.80;;;;;;5054376;28;19924;-88
2022/05/18 01:56:19;;;;;;;;;;;21.10;51.80;;;;;;5057868;28;20290;-88
2022/05/18 01:58:46;;;;;;;;;;;21.00;51.80;;;;;;5064176;28;19971;-89
2022/05/18 02:01:11;;;;;;;;;;;20.90;52.00;;;;;;5056755;28;19913;-88
2022/05/18 02:03:37;;;;;;;;;;;20.80;52.10;;;;;;5075689;28;19923;-88
2022/05/18 02:06:03;;;;;;;;;;;20.80;52.30;;;;;;5067547;28;19928;-89
2022/05/18 02:08:28;;;;;;;;;;;20.80;52.30;;;;;;5071021;28;19928;-88
2022/05/18 02:10:54;;;;;;;;;;;20.70;52.20;;;;;;5053669;28;19917;-87
2022/05/18 02:13:20;;;;;;;;;;;20.60;52.10;;;;;;5054339;28;19917;-88
2022/05/18 02:15:46;;;;;;;;;;;20.50;52.10;;;;;;5055167;28;19940;-88
2022/05/18 02:18:12;;;;;;;;;;;20.50;52.10;;;;;;5055556;28;19916;-88
2022/05/18 02:20:38;;;;;;;;;;;20.40;52.20;;;;;;5049768;28;19913;-89
2022/05/18 02:23:03;;;;;;;;;;;20.40;52.30;;;;;;5056708;28;19917;-88
2022/05/18 02:25:29;;;;;;;;;;;20.30;52.80;;;;;;5056587;28;19921;-88
2022/05/18 02:27:55;;;;;;;;;;;20.30;52.80;;;;;;5057214;28;20023;-88
2022/05/18 02:30:21;;;;;;;;;;;20.30;52.60;;;;;;5056777;28;19980;-89
2022/05/18 02:32:46;;;;;;;;;;;20.30;52.70;;;;;;5057067;28;20384;-88
2022/05/18 02:35:12;;;;;;;;;;;20.30;52.90;;;;;;5057799;28;19920;-88
2022/05/18 02:37:38;;;;;;;;;;;20.30;53.10;;;;;;5075507;28;19975;-88
2022/05/18 02:40:04;;;;;;;;;;;20.20;53.00;;;;;;5075909;28;19912;-87
2022/05/18 02:42:30;;;;;;;;;;;20.20;53.10;;;;;;5074680;28;20379;-88
2022/05/18 02:44:55;;;;;;;;;;;20.20;53.20;;;;;;5056467;28;19917;-88
2022/05/18 02:47:21;;;;;;;;;;;20.30;53.20;;;;;;5056843;28;19920;-88
2022/05/18 02:49:47;;;;;;;;;;;20.30;53.40;;;;;;5056929;28;19927;-88
2022/05/18 02:52:12;;;;;;;;;;;20.30;53.70;;;;;;5072354;28;19951;-89
2022/05/18 02:57:22;;;;;;;;;;;20.50;54.30;;;;;;5073464;28;20011;-88
2022/05/18 02:59:47;;;;;;;;;;;20.50;54.20;;;;;;5055341;28;19952;-89
2022/05/18 03:02:13;;;;;;;;;;;20.50;54.20;;;;;;5072711;28;20352;-89
2022/05/18 03:04:39;;;;;;;;;;;20.60;54.10;;;;;;5074323;28;20343;-88
2022/05/18 03:07:05;;;;;;;;;;;20.60;54.00;;;;;;5074493;28;20368;-89
2022/05/18 03:09:30;;;;;;;;;;;20.70;53.80;;;;;;5044177;28;19979;-89
2022/05/18 03:11:56;;;;;;;;;;;20.70;53.70;;;;;;5074198;28;19958;-88
2022/05/18 03:14:22;;;;;;;;;;;20.70;53.70;;;;;;5056892;28;19925;-89
2022/05/18 03:16:48;;;;;;;;;;;20.80;53.70;;;;;;5055775;28;19912;-88
2022/05/18 03:19:14;;;;;;;;;;;20.80;54.00;;;;;;5070208;28;19938;-88
2022/05/18 03:24:24;;;;;;;;;;;20.90;53.80;;;;;;5073953;28;19935;-88
2022/05/18 03:26:49;;;;;;;;;;;20.90;53.90;;;;;;5074493;28;19920;-88
2022/05/18 03:29:16;;;;;;;;;;;20.90;53.90;;;;;;5073569;28;20356;-88
2022/05/18 03:31:41;;;;;;;;;;;20.90;53.90;;;;;;5052074;28;19996;-88
2022/05/18 03:34:08;;;;;;;;;;;20.80;53.80;;;;;;5055578;28;19945;-87
2022/05/18 03:36:33;;;;;;;;;;;20.80;53.80;;;;;;5055417;28;20353;-88
2022/05/18 03:38:59;;;;;;;;;;;20.80;54.00;;;;;;5073943;28;19919;-88
2022/05/18 03:41:25;;;;;;;;;;;20.80;54.00;;;;;;5073832;28;19913;-88
2022/05/18 03:43:50;;;;;;;;;;;20.70;54.00;;;;;;5055328;28;19919;-88
2022/05/18 03:46:15;;;;;;;;;;;20.70;54.10;;;;;;5058901;28;19936;-88
2022/05/18 03:48:41;;;;;;;;;;;20.70;54.10;;;;;;5049075;28;19922;-88
2022/05/18 03:51:07;;;;;;;;;;;20.70;54.10;;;;;;5073530;28;19920;-88
2022/05/18 03:53:34;;;;;;;;;;;20.70;54.10;;;;;;5055577;28;19913;-88
2022/05/18 03:55:59;;;;;;;;;;;20.70;54.10;;;;;;5072933;28;19927;-87
2022/05/18 03:58:25;;;;;;;;;;;20.70;54.10;;;;;;5053879;28;19917;-88
2022/05/18 04:00:52;;;;;;;;;;;20.60;54.20;;;;;;5073789;28;19917;-88
2022/05/18 04:03:18;;;;;;;;;;;20.60;54.20;;;;;;5055314;28;19912;-88
2022/05/18 04:05:44;;;;;;;;;;;20.60;54.20;;;;;;5064421;28;20002;-88
2022/05/18 04:08:10;;;;;;;;;;;20.60;54.10;;;;;;5094536;28;19962;-88
2022/05/18 04:10:38;;;;;;;;;;;20.70;54.30;;;;;;5085791;28;19927;-88
2022/05/18 04:13:04;;;;;;;;;;;20.70;54.40;;;;;;5084904;28;19919;-88
2022/05/18 04:15:30;;;;;;;;;;;20.70;54.50;;;;;;5093858;28;19917;-88
2022/05/18 04:17:56;;;;;;;;;;;20.70;54.50;;;;;;5093826;28;19975;-88
2022/05/18 04:20:23;;;;;;;;;;;20.80;54.60;;;;;;5094120;28;19962;-88
2022/05/18 04:22:49;;;;;;;;;;;20.80;54.70;;;;;;5094063;28;19916;-88
2022/05/18 04:25:17;;;;;;;;;;;20.80;54.80;;;;;;5075649;28;19920;-88
2022/05/18 04:27:43;;;;;;;;;;;20.90;54.80;;;;;;5094560;28;20006;-88
2022/05/18 04:30:09;;;;;;;;;;;21.00;54.90;;;;;;5075884;28;20042;-88
2022/05/18 04:32:37;;;;;;;;;;;21.10;55.20;;;;;;5055576;28;20351;-89
2022/05/18 04:35:03;;;;;;;;;;;21.30;55.80;;;;;;5073278;28;19917;-89
2022/05/18 04:37:28;;;;;;;;;;;21.70;56.20;;;;;;5055087;28;19992;-89
2022/05/18 04:39:54;;;;;;;;;;;22.10;56.30;;;;;;5073464;28;20423;-89
2022/05/18 04:42:22;;;;;;;;;;;22.40;55.60;;;;;;5055406;28;20390;-89
2022/05/18 04:44:49;;;;;;;;;;;22.70;54.40;;;;;;5055757;28;19924;-89
2022/05/18 04:47:14;;;;;;;;;;;22.80;53.30;;;;;;5055394;28;19970;-89
2022/05/18 04:49:40;;;;;;;;;;;22.80;52.90;;;;;;5053864;28;19916;-88
2022/05/18 04:52:07;;;;;;;;;;;22.80;52.60;;;;;;5052996;28;20051;-89
2022/05/18 04:54:34;;;;;;;;;;;22.90;52.70;;;;;;5052310;28;19939;-89
2022/05/18 04:56:59;;;;;;;;;;;23.10;52.60;;;;;;5052316;28;20008;-90
2022/05/18 04:59:25;;;;;;;;;;;23.20;52.60;;;;;;5090368;28;19986;-89
2022/05/18 05:01:50;;;;;;;;;;;23.40;52.70;;;;;;5089895;28;19913;-90
2022/05/18 05:04:16;;;;;;;;;;;23.60;52.40;;;;;;5055199;28;20574;-90
2022/05/18 05:06:43;;;;;;;;;;;23.70;52.20;;;;;;5054108;28;20452;-90
2022/05/18 05:09:09;;;;;;;;;;;24.00;52.70;;;;;;5072872;28;20003;-90
2022/05/18 05:11:34;;;;;;;;;;;24.30;52.80;;;;;;5063994;28;19952;-90
2022/05/18 05:14:00;;;;;;;;;;;24.80;52.50;;;;;;5056238;28;19920;-90
2022/05/18 05:16:29;;;;;;;;;;;25.40;52.60;;;;;;5054424;28;19913;-91
2022/05/18 05:18:55;;;;;;;;;;;25.90;52.40;;;;;;5035883;28;19912;-88
2022/05/18 05:21:21;;;;;;;;;;;26.60;51.70;;;;;;5069599;28;20364;-89
2022/05/18 05:23:46;;;;;;;;;;;27.20;50.80;;;;;;5072764;28;20247;-89
2022/05/18 05:26:12;;;;;;;;;;;27.80;49.60;;;;;;5071244;28;19947;-87
2022/05/18 05:28:38;;;;;;;;;;;28.40;47.90;;;;;;5051871;28;19913;-88
2022/05/18 05:31:04;;;;;;;;;;;28.90;46.40;;;;;;5056359;28;19956;-88
2022/05/18 05:33:30;;;;;;;;;;;29.00;44.40;;;;;;5056859;28;19913;-88
2022/05/18 05:35:55;;;;;;;;;;;29.00;43.30;;;;;;5054664;28;19986;-88
2022/05/18 05:38:20;;;;;;;;;;;28.80;42.80;;;;;;5054648;28;20353;-88
2022/05/18 05:40:46;;;;;;;;;;;28.80;43.50;;;;;;5055476;28;19920;-87
2022/05/18 05:43:12;;;;;;;;;;;29.10;43.50;;;;;;5056073;28;19936;-88
2022/05/18 05:45:38;;;;;;;;;;;29.50;43.60;;;;;;5054375;28;19949;-88
2022/05/18 05:48:04;;;;;;;;;;;29.90;42.70;;;;;;5054165;28;19913;-89
2022/05/18 05:50:30;;;;;;;;;;;30.40;42.30;;;;;;5054438;28;20007;-88
2022/05/18 05:52:57;;;;;;;;;;;31.10;41.70;;;;;;5056006;28;20424;-89
2022/05/18 05:55:23;;;;;;;;;;;31.70;41.00;;;;;;5054639;28;20262;-88
2022/05/18 05:57:48;;;;;;;;;;;32.30;40.00;;;;;;5055392;28;19919;-89
2022/05/18 06:00:14;;;;;;;;;;;32.80;38.90;;;;;;5054020;28;19975;-88
2022/05/18 06:02:39;;;;;;;;;;;33.40;38.00;;;;;;5055219;28;19920;-88
2022/05/18 06:05:05;;;;;;;;;;;33.80;36.60;;;;;;5065192;28;19924;-88
2022/05/18 06:07:31;;;;;;;;;;;34.30;35.20;;;;;;5077910;28;20531;-89
2022/05/18 06:09:56;;;;;;;;;;;34.60;34.30;;;;;;5054364;28;19931;-89
2022/05/18 06:12:23;;;;;;;;;;;35.00;33.50;;;;;;5054780;28;19917;-88
2022/05/18 06:14:49;;;;;;;;;;;35.30;33.00;;;;;;5073526;28;20051;-89
2022/05/18 06:17:15;;;;;;;;;;;35.80;33.00;;;;;;5055071;28;20000;-88
2022/05/18 06:19:40;;;;;;;;;;;36.20;32.20;;;;;;5073395;28;19996;-89
2022/05/18 06:22:06;;;;;;;;;;;36.60;31.60;;;;;;5073812;28;19921;-89
2022/05/18 06:24:31;;;;;;;;;;;36.90;30.80;;;;;;5074127;28;19920;-89
2022/05/18 06:26:57;;;;;;;;;;;37.10;29.90;;;;;;5055934;28;19939;-89
2022/05/18 06:29:23;;;;;;;;;;;37.10;29.30;;;;;;5074423;28;20043;-88
2022/05/18 06:31:48;;;;;;;;;;;37.00;29.00;;;;;;5056999;28;20371;-89
2022/05/18 06:34:14;;;;;;;;;;;36.80;28.90;;;;;;5056456;28;20336;-89
2022/05/18 06:36:39;;;;;;;;;;;36.60;28.80;;;;;;5073418;28;19987;-89
2022/05/18 06:39:05;;;;;;;;;;;36.40;29.10;;;;;;5072690;28;19916;-88
2022/05/18 06:41:31;;;;;;;;;;;36.20;29.10;;;;;;5084588;28;19966;-89
2022/05/18 06:43:58;;;;;;;;;;;35.90;29.30;;;;;;5041663;28;19921;-88
2022/05/18 06:46:25;;;;;;;;;;;35.60;29.90;;;;;;5093981;28;19928;-89
2022/05/18 06:48:51;;;;;;;;;;;35.50;30.30;;;;;;5095017;28;19962;-88
2022/05/18 06:51:24;;;;;;;;;;;35.30;30.40;;;;;;5075857;28;19931;-88
2022/05/18 06:53:51;;;;;;;;;;;35.00;30.40;;;;;;5053939;28;19921;-89
2022/05/18 06:56:21;;;;;;;;;;;34.50;30.70;;;;;;5052821;28;20303;-88
2022/05/18 06:58:48;;;;;;;;;;;34.00;31.10;;;;;;5056015;28;20336;-88
2022/05/18 07:01:14;;;;;;;;;;;33.60;31.50;;;;;;5055738;28;20342;-88
2022/05/18 07:03:39;;;;;;;;;;;33.10;32.00;;;;;;5053752;28;20265;-88
2022/05/18 07:06:05;;;;;;;;;;;32.80;32.60;;;;;;5053003;28;20015;-89
2022/05/18 07:08:31;;;;;;;;;;;32.70;33.20;;;;;;5056476;28;19923;-89
2022/05/18 07:10:56;;;;;;;;;;;32.60;33.60;;;;;;5055923;28;19920;-89
2022/05/18 07:13:22;;;;;;;;;;;32.70;34.30;;;;;;5054504;28;19919;-88
2022/05/18 07:15:48;;;;;;;;;;;33.30;34.50;;;;;;5051997;28;19924;-88
2022/05/18 07:18:13;;;;;;;;;;;33.80;33.90;;;;;;5052169;28;19916;-89
2022/05/18 07:20:39;;;;;;;;;;;34.20;33.40;;;;;;5053912;28;19924;-88
2022/05/18 07:23:05;;;;;;;;;;;34.50;32.70;;;;;;5052993;28;20608;-87
2022/05/18 07:25:30;;;;;;;;;;;34.80;32.40;;;;;;5052046;28;19924;-87
2022/05/18 07:27:56;;;;;;;;;;;35.30;32.10;;;;;;5053299;28;20535;-88
2022/05/18 07:30:21;;;;;;;;;;;35.90;31.60;;;;;;5053806;28;19917;-87
2022/05/18 07:32:47;;;;;;;;;;;36.30;31.30;;;;;;5054142;28;19951;-88
2022/05/18 07:35:12;;;;;;;;;;;37.10;31.10;;;;;;5053910;28;19920;-88
2022/05/18 07:37:38;;;;;;;;;;;37.80;30.10;;;;;;5053790;28;19912;-88
2022/05/18 07:40:05;;;;;;;;;;;38.10;29.10;;;;;;5052280;28;19921;-88
2022/05/18 07:42:30;;;;;;;;;;;38.40;28.60;;;;;;5052390;28;20054;-88
2022/05/18 07:44:56;;;;;;;;;;;38.70;28.10;;;;;;5051919;28;20368;-87
2022/05/18 07:47:31;;;;;;;;;;;39.20;27.80;;;;;;5052412;28;20432;-88
2022/05/18 07:49:56;;;;;;;;;;;39.70;27.30;;;;;;5051926;28;19921;-88
2022/05/18 07:52:23;;;;;;;;;;;40.30;26.90;;;;;;5053211;28;19913;-88
2022/05/18 07:54:50;;;;;;;;;;;41.00;26.50;;;;;;5065171;28;19943;-89
2022/05/18 07:57:16;;;;;;;;;;;41.70;25.40;;;;;;5088027;28;19908;-88
2022/05/18 07:59:41;;;;;;;;;;;41.90;23.30;;;;;;5046356;28;19920;-89
2022/05/18 08:02:07;;;;;;;;;;;41.50;22.70;;;;;;5035939;28;19916;-88
2022/05/18 08:04:32;;;;;;;;;;;41.30;22.80;;;;;;5056958;28;19925;-88
2022/05/18 08:06:58;;;;;;;;;;;40.80;22.40;;;;;;5055005;28;19928;-88
2022/05/18 08:09:24;;;;;;;;;;;40.60;22.80;;;;;;5055311;28;19967;-88
2022/05/18 08:17:18;;;;;;;;;;;41.20;22.60;;;;;;5069625;28;19956;-90
2022/05/18 08:19:44;;;;;;;;;;;41.40;22.50;;;;;;5060980;28;20531;-89
2022/05/18 08:22:10;;;;;;;;;;;41.80;22.30;;;;;;5072770;28;19916;-89
2022/05/18 08:24:39;;;;;;;;;;;42.20;21.70;;;;;;5071202;28;19924;-89
2022/05/18 08:27:05;;;;;;;;;;;42.60;21.70;;;;;;5069250;28;19924;-89
2022/05/18 08:29:30;;;;;;;;;;;42.90;21.10;;;;;;5072389;28;20015;-90
2022/05/18 08:31:56;;;;;;;;;;;43.10;20.20;;;;;;5054239;28;19971;-89
2022/05/18 08:34:21;;;;;;;;;;;43.30;20.50;;;;;;5049560;28;19947;-89
2022/05/18 08:36:47;;;;;;;;;;;43.60;20.00;;;;;;5053769;28;20291;-89
2022/05/18 08:39:12;;;;;;;;;;;44.00;20.10;;;;;;5072466;28;20001;-90
2022/05/18 08:41:44;;;;;;;;;;;44.20;19.60;;;;;;5054501;28;20020;-90
2022/05/18 08:44:13;;;;;;;;;;;44.50;19.40;;;;;;5038579;28;20966;-89
2022/05/18 08:46:43;;;;;;;;;;;44.70;19.00;;;;;;5060207;28;20280;-89
2022/05/18 08:49:18;;;;;;;;;;;44.90;19.10;;;;;;5050115;28;19917;-90
2022/05/18 08:51:51;;;;;;;;;;;45.20;18.90;;;;;;5053088;28;20004;-89
2022/05/18 08:54:22;;;;;;;;;;;45.50;18.70;;;;;;5057217;28;20035;-90
2022/05/18 08:56:49;;;;;;;;;;;45.80;18.00;;;;;;5071938;28;19913;-90
2022/05/18 08:59:20;;;;;;;;;;;46.20;18.10;;;;;;5054545;28;19988;-89
2022/05/18 09:01:49;;;;;;;;;;;46.40;17.90;;;;;;5075057;28;19912;-90
2022/05/18 09:04:44;;;;;;;;;;;46.60;17.70;;;;;;5082296;28;20007;-90
2022/05/18 09:07:15;;;;;;;;;;;46.80;17.80;;;;;;5017681;28;20417;-89
2022/05/18 09:10:13;;;;;;;;;;;46.90;17.30;;;;;;5055898;28;19916;-89
2022/05/18 09:12:49;;;;;;;;;;;46.90;17.00;;;;;;5053647;28;19924;-89
2022/05/18 09:15:22;;;;;;;;;;;46.90;17.00;;;;;;5068965;28;19952;-89
2022/05/18 09:17:47;;;;;;;;;;;46.80;16.70;;;;;;5075147;28;19985;-89
2022/05/18 09:20:13;;;;;;;;;;;46.50;16.90;;;;;;5055287;28;19967;-89
2022/05/18 09:22:50;;;;;;;;;;;46.40;17.10;;;;;;5056594;28;19975;-89
2022/05/18 09:25:17;;;;;;;;;;;46.40;17.30;;;;;;5054267;28;19920;-90
2022/05/18 09:27:58;;;;;;;;;;;46.50;17.00;;;;;;5074810;28;19938;-89
2022/05/18 09:30:33;;;;;;;;;;;46.70;17.20;;;;;;5056850;28;19935;-90
2022/05/18 09:33:06;;;;;;;;;;;47.10;17.20;;;;;;5074115;28;19916;-90
2022/05/18 09:35:51;;;;;;;;;;;47.50;17.00;;;;;;5070298;28;19927;-89
2022/05/18 09:38:25;;;;;;;;;;;47.90;17.10;;;;;;5063257;28;19920;-90
2022/05/18 09:40:51;;;;;;;;;;;48.50;17.10;;;;;;5074168;28;19920;-89
2022/05/18 09:43:19;;;;;;;;;;;49.00;16.70;;;;;;5066903;28;19922;-89
2022/05/18 09:45:47;;;;;;;;;;;49.60;16.40;;;;;;5086787;28;19931;-90
2022/05/18 09:48:15;;;;;;;;;;;49.60;15.60;;;;;;5082059;28;19912;-89
2022/05/18 09:50:43;;;;;;;;;;;49.20;15.40;;;;;;5055966;28;20302;-89
2022/05/18 09:53:08;;;;;;;;;;;48.80;15.70;;;;;;5056398;28;19909;-90
2022/05/18 09:55:34;;;;;;;;;;;48.30;16.20;;;;;;5052020;28;20289;-90
2022/05/18 09:58:14;;;;;;;;;;;48.20;16.40;;;;;;5055216;28;20443;-90
2022/05/18 10:00:40;;;;;;;;;;;48.30;16.40;;;;;;5053234;28;19921;-90
2022/05/18 10:08:54;;;;;;;;;;;48.80;16.20;;;;;;5076675;28;20312;-90
2022/05/18 10:11:21;;;;;;;;;;;49.30;16.10;;;;;;5073417;28;19916;-91
2022/05/18 10:14:04;;;;;;;;;;;49.70;15.80;;;;;;5056513;28;19924;-90
2022/05/18 10:16:38;;;;;;;;;;;49.90;15.40;;;;;;5053482;28;20015;-90
2022/05/18 10:19:05;;;;;;;;;;;50.00;15.30;;;;;;5072583;28;19923;-90
2022/05/18 10:21:35;;;;;;;;;;;50.20;15.40;;;;;;5056228;28;20351;-90
2022/05/18 10:24:05;;;;;;;;;;;50.40;14.80;;;;;;5053607;28;19962;-90
2022/05/18 10:26:35;;;;;;;;;;;50.40;14.70;;;;;;5063402;28;20011;-90
2022/05/18 10:29:04;;;;;;;;;;;50.30;14.90;;;;;;5053573;28;20330;-90
2022/05/18 10:31:37;;;;;;;;;;;50.30;15.00;;;;;;5053236;28;19920;-90
2022/05/18 10:34:15;;;;;;;;;;;50.40;15.10;;;;;;5083305;28;20610;-91
2022/05/18 10:36:49;;;;;;;;;;;50.50;15.10;;;;;;5094952;28;20372;-90
2022/05/18 10:39:35;;;;;;;;;;;50.80;15.20;;;;;;5037149;28;19913;-91
2022/05/18 10:42:07;;;;;;;;;;;51.20;15.20;;;;;;5054738;28;19913;-90
2022/05/18 10:44:33;;;;;;;;;;;51.60;14.80;;;;;;5050805;28;20018;-91
2022/05/18 10:47:11;;;;;;;;;;;51.90;14.50;;;;;;5055408;28;19921;-90
2022/05/18 10:49:36;;;;;;;;;;;52.10;14.40;;;;;;5054359;28;20329;-89
2022/05/18 10:52:14;;;;;;;;;;;52.20;14.00;;;;;;5052517;28;20012;-90
2022/05/18 10:54:50;;;;;;;;;;;52.30;14.10;;;;;;5051462;28;19923;-89
2022/05/18 10:57:17;;;;;;;;;;;52.60;14.20;;;;;;5055026;28;19920;-90
2022/05/18 10:59:49;;;;;;;;;;;52.80;14.10;;;;;;5073002;28;19999;-90
2022/05/18 11:02:14;;;;;;;;;;;53.00;13.80;;;;;;5070265;28;20398;-90
2022/05/18 11:04:58;;;;;;;;;;;53.20;13.60;;;;;;5062233;28;19923;-91
2022/05/18 11:07:25;;;;;;;;;;;53.30;13.40;;;;;;5088256;28;19917;-90
2022/05/18 11:09:50;;;;;;;;;;;53.30;13.10;;;;;;5055653;28;19924;-90
2022/05/18 11:12:28;;;;;;;;;;;53.00;12.50;;;;;;5051617;28;19928;-89
2022/05/18 11:15:00;;;;;;;;;;;52.60;12.60;;;;;;5044450;28;19956;-90
2022/05/18 11:17:44;;;;;;;;;;;52.30;12.50;;;;;;5060398;28;20295;-90
2022/05/18 11:20:28;;;;;;;;;;;52.00;12.70;;;;;;5058530;28;19917;-89
2022/05/18 11:23:02;;;;;;;;;;;51.70;13.00;;;;;;5073976;28;19923;-90
2022/05/18 11:25:31;;;;;;;;;;;51.70;13.20;;;;;;5059967;28;19925;-90
2022/05/18 11:28:15;;;;;;;;;;;51.60;13.40;;;;;;5066981;28;19921;-90
2022/05/18 11:30:59;;;;;;;;;;;51.00;13.50;;;;;;5078300;28;20372;-90
2022/05/18 11:33:35;;;;;;;;;;;49.60;13.80;;;;;;5070035;28;19917;-90
2022/05/18 11:36:01;;;;;;;;;;;48.20;14.30;;;;;;5055699;28;19935;-90
2022/05/18 11:38:35;;;;;;;;;;;47.20;15.00;;;;;;5051940;28;19920;-89
2022/05/18 11:41:01;;;;;;;;;;;47.00;15.10;;;;;;5058260;28;19920;-90
2022/05/18 11:43:33;;;;;;;;;;;47.40;15.10;;;;;;5073512;28;19943;-90
2022/05/18 11:45:58;;;;;;;;;;;47.70;14.90;;;;;;5054717;28;19928;-90
2022/05/18 11:48:30;;;;;;;;;;;47.90;14.90;;;;;;5072190;28;19916;-89
2022/05/18 11:51:12;;;;;;;;;;;48.00;14.60;;;;;;5073477;28;20299;-89
2022/05/18 11:53:53;;;;;;;;;;;47.70;14.70;;;;;;5053184;28;19920;-88
2022/05/18 11:56:27;;;;;;;;;;;47.60;15.10;;;;;;5084229;28;20253;-88
2022/05/18 12:01:49;;;;;;;;;;;48.70;14.90;;;;;;5073428;28;19925;-88
2022/05/18 12:04:27;;;;;;;;;;;48.80;14.60;;;;;;5039388;28;20526;-88
2022/05/18 12:07:22;;;;;;;;;;;48.10;14.80;;;;;;5055437;28;19925;-88
2022/05/18 12:10:06;;;;;;;;;;;47.20;14.80;;;;;;5058959;28;19916;-88
2022/05/18 12:12:35;;;;;;;;;;;46.40;15.30;;;;;;5093138;28;19927;-88
2022/05/18 12:15:17;;;;;;;;;;;46.50;15.50;;;;;;5076515;28;20315;-88
2022/05/18 12:17:46;;;;;;;;;;;47.10;15.50;;;;;;5051876;28;19928;-89
2022/05/18 12:20:24;;;;;;;;;;;47.80;15.20;;;;;;5067767;28;20016;-89
2022/05/18 12:22:50;;;;;;;;;;;48.00;14.70;;;;;;5086020;28;20257;-89
2022/05/18 12:25:19;;;;;;;;;;;48.00;14.50;;;;;;5051871;28;19937;-88
2022/05/18 12:27:45;;;;;;;;;;;48.00;14.50;;;;;;5063789;28;19946;-89
2022/05/18 12:30:12;;;;;;;;;;;48.20;14.50;;;;;;5093667;28;19916;-89
2022/05/18 12:32:38;;;;;;;;;;;48.50;14.50;;;;;;5088544;28;19920;-89
2022/05/18 12:35:24;;;;;;;;;;;48.80;14.60;;;;;;5069155;28;20233;-89
2022/05/18 12:38:09;;;;;;;;;;;48.80;14.60;;;;;;5031642;28;19916;-88
2022/05/18 12:40:48;;;;;;;;;;;48.30;14.70;;;;;;5076916;28;19934;-90
2022/05/18 12:43:32;;;;;;;;;;;48.50;14.90;;;;;;5058487;28;19966;-90
2022/05/18 12:46:16;;;;;;;;;;;48.80;14.60;;;;;;5088581;28;19916;-89
2022/05/18 12:48:47;;;;;;;;;;;49.00;14.40;;;;;;5085102;28;19912;-90
2022/05/18 12:51:12;;;;;;;;;;;48.70;13.80;;;;;;5078303;28;19931;-89
2022/05/18 12:53:53;;;;;;;;;;;47.70;14.30;;;;;;5077616;28;19912;-89
2022/05/18 12:56:21;;;;;;;;;;;47.70;14.70;;;;;;5084777;28;19916;-89
2022/05/18 12:59:02;;;;;;;;;;;48.00;14.70;;;;;;5062794;28;19916;-90
2022/05/18 13:01:30;;;;;;;;;;;48.10;14.60;;;;;;5036745;28;19916;-87
2022/05/18 13:03:57;;;;;;;;;;;48.20;14.70;;;;;;5057832;28;19912;-89
2022/05/18 13:06:35;;;;;;;;;;;48.50;14.70;;;;;;5072073;28;19943;-89
2022/05/18 13:09:19;;;;;;;;;;;48.10;14.60;;;;;;5056671;28;19920;-88
2022/05/18 13:11:57;;;;;;;;;;;47.80;14.80;;;;;;5073110;28;19912;-88
2022/05/18 13:14:35;;;;;;;;;;;47.70;14.50;;;;;;5078452;28;19916;-88
2022/05/18 13:17:05;;;;;;;;;;;46.80;14.70;;;;;;5098589;28;19912;-89
2022/05/18 13:19:31;;;;;;;;;;;46.00;15.20;;;;;;5059881;28;19912;-89
2022/05/18 13:22:06;;;;;;;;;;;45.90;15.60;;;;;;5060026;28;20288;-90
2022/05/18 13:24:40;;;;;;;;;;;46.30;15.50;;;;;;5076949;28;20351;-89
2022/05/18 13:27:11;;;;;;;;;;;46.40;14.80;;;;;;5058502;28;19925;-89
2022/05/18 13:29:37;;;;;;;;;;;46.30;14.80;;;;;;5060572;28;19913;-89
2022/05/18 13:32:06;;;;;;;;;;;45.70;15.00;;;;;;5057782;28;20691;-89
2022/05/18 13:34:49;;;;;;;;;;;45.70;15.40;;;;;;5048341;28;19992;-89
2022/05/18 13:37:15;;;;;;;;;;;46.00;15.20;;;;;;5056783;28;19921;-88
2022/05/18 13:39:45;;;;;;;;;;;46.00;15.20;;;;;;5057312;28;19963;-89
2022/05/18 13:42:11;;;;;;;;;;;46.20;15.30;;;;;;5058632;28;19924;-89
2022/05/18 13:44:37;;;;;;;;;;;46.50;15.30;;;;;;5075058;28;19924;-88
2022/05/18 13:47:03;;;;;;;;;;;46.80;15.20;;;;;;5079880;28;19920;-88
2022/05/18 13:49:31;;;;;;;;;;;47.00;15.20;;;;;;5097633;28;19916;-88
2022/05/18 13:52:06;;;;;;;;;;;47.00;15.20;;;;;;5080149;28;19932;-88
2022/05/18 13:54:36;;;;;;;;;;;46.80;15.30;;;;;;5072066;28;20336;-88
2022/05/18 13:57:05;;;;;;;;;;;46.50;15.30;;;;;;5078821;28;19922;-88
2022/05/18 13:59:32;;;;;;;;;;;46.00;15.10;;;;;;5058690;28;20405;-88
2022/05/18 14:02:01;;;;;;;;;;;45.80;15.10;;;;;;5076076;28;19912;-88
2022/05/18 14:04:34;;;;;;;;;;;45.70;15.40;;;;;;5078833;28;19928;-89
2022/05/18 14:07:00;;;;;;;;;;;46.10;15.30;;;;;;5096623;28;19924;-89
2022/05/18 14:09:26;;;;;;;;;;;46.00;15.20;;;;;;5059030;28;19913;-89
2022/05/18 14:11:55;;;;;;;;;;;45.30;15.30;;;;;;5058397;28;20461;-88
2022/05/18 14:14:21;;;;;;;;;;;45.20;15.60;;;;;;5071156;28;19913;-88
2022/05/18 14:16:49;;;;;;;;;;;44.90;15.40;;;;;;5086252;28;19912;-88
2022/05/18 14:19:18;;;;;;;;;;;44.30;15.80;;;;;;5057839;28;19913;-88
2022/05/18 14:21:46;;;;;;;;;;;43.90;16.10;;;;;;5057588;28;20446;-88
2022/05/18 14:24:26;;;;;;;;;;;43.60;16.40;;;;;;5066929;28;19992;-88
2022/05/18 14:27:01;;;;;;;;;;;43.00;16.60;;;;;;5072570;28;20311;-88
2022/05/18 14:29:33;;;;;;;;;;;42.30;17.00;;;;;;5076694;28;19921;-88
2022/05/18 14:32:02;;;;;;;;;;;41.70;17.50;;;;;;5059887;28;19917;-89
2022/05/18 14:34:37;;;;;;;;;;;41.20;17.90;;;;;;5046285;28;19928;-86
2022/05/18 14:37:10;;;;;;;;;;;41.00;18.20;;;;;;5060267;28;20274;-88
2022/05/18 14:39:37;;;;;;;;;;;40.80;18.50;;;;;;5061092;28;19917;-88
2022/05/18 14:42:03;;;;;;;;;;;40.40;18.90;;;;;;5075372;28;20010;-89
2022/05/18 14:44:34;;;;;;;;;;;40.20;19.20;;;;;;5068482;28;19952;-89